Seabourn Odyssey — C6XC6 — position and weather

sailwx.info

Track history (hours):
 
Tides and Currents Weather Stations Pressure Air Temp Water Temp Dewpoint Dewpoint Depression Visibility Wind Speed Wind Dir Waves Ship Positions

Seabourn Odyssey

Last reported at 2017-Sep-18 23:57 UTC. Time now 2017-Sep-22 17:06 UTC.
Position N 40°09' E 019°14'.

Length 198 m; draft 6.7 m.

Type: Ship. MMSI: 309416000.

Date/timePositionNaut miles runAvg speedWind from/ knotsBaromVisibWave heightAir tempDewpointWater temp
2017-Sep-18 23:57N 40°09' E 019°14'612.6
2017-Sep-18 23:30N 40°14' E 019°11'712.2
2017-Sep-18 22:58N 40°20' E 019°08'348 7.1
2017-Sep-16 22:00N 44°10' E 013°15'918.9
2017-Sep-16 21:30N 44°19' E 013°09'918.5
2017-Sep-16 21:00N 44°27' E 013°06'918.4
2017-Sep-16 20:30N 44°36' E 013°02'918.5
2017-Sep-16 20:00N 44°45' E 012°58'918.5
2017-Sep-16 19:30N 44°53' E 012°52'918.6
2017-Sep-16 19:00N 45°01' E 012°46'918.0
2017-Sep-16 18:30N 45°09' E 012°38'917.2
2017-Sep-16 18:00N 45°15' E 012°30'917.4
2017-Sep-16 17:30N 45°24' E 012°29'5 9.3
2017-Sep-16 17:00N 45°26' E 012°23'3 5.4
2017-Sep-16 16:30N 45°26' E 012°19'1 1.1
2017-Sep-16 16:00N 45°26' E 012°18'0 0.0
2017-Sep-16 15:30N 45°26' E 012°18'0 0.0
2017-Sep-16 15:00N 45°26' E 012°18'0 0.0
2017-Sep-16 14:30N 45°26' E 012°18'0 0.0
2017-Sep-16 14:00N 45°26' E 012°18'0 0.0
2017-Sep-16 13:30N 45°26' E 012°18'0 0.0
2017-Sep-16 13:00N 45°26' E 012°18'0 0.0
2017-Sep-16 12:30N 45°26' E 012°18'0 0.0
2017-Sep-16 12:00N 45°26' E 012°18'0 0.0
2017-Sep-16 11:30N 45°26' E 012°18'0 0.0
2017-Sep-16 11:00N 45°26' E 012°18'0 0.0
2017-Sep-16 10:30N 45°26' E 012°18'0 0.0
2017-Sep-16 10:00N 45°26' E 012°18'0 0.0
2017-Sep-16 09:30N 45°26' E 012°18'0 0.0
2017-Sep-16 09:00N 45°26' E 012°18'0 0.0
2017-Sep-16 08:30N 45°26' E 012°18'0 0.0
2017-Sep-16 08:00N 45°26' E 012°18'0 0.0
2017-Sep-16 07:30N 45°26' E 012°18'0 0.0
2017-Sep-16 07:00N 45°26' E 012°18'0 0.0
2017-Sep-16 06:30N 45°26' E 012°18'0 0.0
2017-Sep-16 06:00N 45°26' E 012°18'0 0.0
2017-Sep-16 05:30N 45°26' E 012°18'0 0.0
2017-Sep-16 05:00N 45°26' E 012°18'0 0.0
2017-Sep-16 04:30N 45°26' E 012°18'0 0.6
2017-Sep-16 04:00N 45°26' E 012°18'2 4.1
2017-Sep-16 03:31N 45°26' E 012°21'3 6.0
2017-Sep-16 03:00N 45°25' E 012°25'510.5
2017-Sep-16 02:30N 45°23' E 012°31'510.7
2017-Sep-16 02:00N 45°17' E 012°32'612.2
2017-Sep-16 01:30N 45°13' E 012°38'612.5
2017-Sep-16 01:00N 45°09' E 012°45'815.9
2017-Sep-16 00:30N 45°03' E 012°52'917.8
2017-Sep-16 00:00N 44°54' E 012°57'917.8
2017-Sep-15 23:30N 44°46' E 013°01'917.7
2017-Sep-15 23:00N 44°38' E 013°05'917.8
2017-Sep-15 22:30N 44°29' E 013°09'917.7
2017-Sep-15 22:00N 44°21' E 013°13'268 5.7
2017-Sep-13 23:06N 41°41' E 018°08'1 8.6
2017-Sep-13 23:00N 41°40' E 018°08'4 8.7
2017-Sep-13 22:30N 41°35' E 018°07'4 8.8
2017-Sep-13 22:00N 41°31' E 018°07'6 8.7
2017-Sep-13 21:17N 41°25' E 018°07'  
2017-Sep-10 01:26N 36°46' E 023°17'2 5.1
2017-Sep-10 01:00N 36°47' E 023°20'5 5.3
2017-Sep-10 00:00N 36°49' E 023°25'3 5.1
2017-Sep-09 23:28N 36°50' E 023°28'13 5.1
2017-Sep-09 20:51N 37°01' E 023°39'3 7.0
2017-Sep-09 20:26N 37°03' E 023°41'5 7.2
2017-Sep-09 19:47N 37°07' E 023°44'2 7.5
2017-Sep-09 19:28N 37°09' E 023°46'3 7.5
2017-Sep-09 19:00N 37°12' E 023°48'25 9.0
2017-Sep-09 16:10N 37°37' E 023°43'211.4
2017-Sep-09 16:00N 37°39' E 023°42'611.3
2017-Sep-09 15:30N 37°44' E 023°39'510.7
2017-Sep-09 15:00N 37°49' E 023°36'611.7
2017-Sep-09 14:30N 37°55' E 023°37'2 4.0
2017-Sep-09 14:00N 37°56' E 023°38'0 0.0
2017-Sep-09 13:30N 37°56' E 023°38'0 0.0
2017-Sep-09 12:57N 37°56' E 023°38'0 0.0
2017-Sep-09 12:30N 37°56' E 023°38'0 0.0
2017-Sep-09 12:00N 37°56' E 023°38'0 0.0
2017-Sep-09 11:30N 37°56' E 023°38'0 0.0
2017-Sep-09 11:00N 37°56' E 023°38'0 0.0
2017-Sep-09 10:30N 37°56' E 023°38'0 0.0
2017-Sep-09 09:57N 37°56' E 023°38'0 0.0
2017-Sep-09 09:30N 37°56' E 023°38'0 0.0
2017-Sep-09 09:00N 37°56' E 023°38'0 0.0
2017-Sep-09 08:30N 37°56' E 023°38'0 0.0
2017-Sep-09 08:00N 37°56' E 023°38'0 0.0
2017-Sep-09 07:30N 37°56' E 023°38'0 0.0
2017-Sep-09 07:00N 37°56' E 023°38'0 0.0
2017-Sep-09 06:30N 37°56' E 023°38'0 0.0
2017-Sep-09 06:00N 37°56' E 023°38'0 0.0
2017-Sep-09 05:30N 37°56' E 023°38'0 0.0
2017-Sep-09 05:00N 37°56' E 023°38'0 0.0
2017-Sep-09 04:30N 37°56' E 023°38'0 0.0
2017-Sep-09 04:00N 37°56' E 023°38'0 0.0
2017-Sep-09 03:30N 37°56' E 023°38'0 0.0
2017-Sep-09 02:57N 37°56' E 023°38'0 0.0
2017-Sep-09 02:30N 37°56' E 023°38'0 0.0
2017-Sep-09 02:00N 37°56' E 023°38'0 0.0
2017-Sep-09 01:27N 37°56' E 023°38'0 0.7
2017-Sep-09 01:01N 37°56' E 023°38'3 6.1
2017-Sep-09 00:30N 37°53' E 023°37'612.5
2017-Sep-09 00:00N 37°48' E 023°41'  
Track history (hours):
 
Tides and Currents Weather Stations Pressure Air Temp Water Temp Dewpoint Dewpoint Depression Visibility Wind Speed Wind Dir Waves Ship Positions

Seabourn Odyssey

Last reported at 2017-Sep-18 23:57 UTC. Time now 2017-Sep-22 17:06 UTC.
Position N 40°09' E 019°14'.

Length 198 m; draft 6.7 m.

Type: Ship. MMSI: 309416000.

Date/timePositionNaut miles runAvg speedWind from/ knotsBaromVisibWave heightAir tempDewpointWater temp
2017-Sep-18 23:57N 40°09' E 019°14'612.6
2017-Sep-18 23:30N 40°14' E 019°11'712.2
2017-Sep-18 22:58N 40°20' E 019°08'348 7.1
2017-Sep-16 22:00N 44°10' E 013°15'918.9
2017-Sep-16 21:30N 44°19' E 013°09'918.5
2017-Sep-16 21:00N 44°27' E 013°06'918.4
2017-Sep-16 20:30N 44°36' E 013°02'918.5
2017-Sep-16 20:00N 44°45' E 012°58'918.5
2017-Sep-16 19:30N 44°53' E 012°52'918.6
2017-Sep-16 19:00N 45°01' E 012°46'918.0
2017-Sep-16 18:30N 45°09' E 012°38'917.2
2017-Sep-16 18:00N 45°15' E 012°30'917.4
2017-Sep-16 17:30N 45°24' E 012°29'5 9.3
2017-Sep-16 17:00N 45°26' E 012°23'3 5.4
2017-Sep-16 16:30N 45°26' E 012°19'1 1.1
2017-Sep-16 16:00N 45°26' E 012°18'0 0.0
2017-Sep-16 15:30N 45°26' E 012°18'0 0.0
2017-Sep-16 15:00N 45°26' E 012°18'0 0.0
2017-Sep-16 14:30N 45°26' E 012°18'0 0.0
2017-Sep-16 14:00N 45°26' E 012°18'0 0.0
2017-Sep-16 13:30N 45°26' E 012°18'0 0.0
2017-Sep-16 13:00N 45°26' E 012°18'0 0.0
2017-Sep-16 12:30N 45°26' E 012°18'0 0.0
2017-Sep-16 12:00N 45°26' E 012°18'0 0.0
2017-Sep-16 11:30N 45°26' E 012°18'0 0.0
2017-Sep-16 11:00N 45°26' E 012°18'0 0.0
2017-Sep-16 10:30N 45°26' E 012°18'0 0.0
2017-Sep-16 10:00N 45°26' E 012°18'0 0.0
2017-Sep-16 09:30N 45°26' E 012°18'0 0.0
2017-Sep-16 09:00N 45°26' E 012°18'0 0.0
2017-Sep-16 08:30N 45°26' E 012°18'0 0.0
2017-Sep-16 08:00N 45°26' E 012°18'0 0.0
2017-Sep-16 07:30N 45°26' E 012°18'0 0.0
2017-Sep-16 07:00N 45°26' E 012°18'0 0.0
2017-Sep-16 06:30N 45°26' E 012°18'0 0.0
2017-Sep-16 06:00N 45°26' E 012°18'0 0.0
2017-Sep-16 05:30N 45°26' E 012°18'0 0.0
2017-Sep-16 05:00N 45°26' E 012°18'0 0.0
2017-Sep-16 04:30N 45°26' E 012°18'0 0.6
2017-Sep-16 04:00N 45°26' E 012°18'2 4.1
2017-Sep-16 03:31N 45°26' E 012°21'3 6.0
2017-Sep-16 03:00N 45°25' E 012°25'510.5
2017-Sep-16 02:30N 45°23' E 012°31'510.7
2017-Sep-16 02:00N 45°17' E 012°32'612.2
2017-Sep-16 01:30N 45°13' E 012°38'612.5
2017-Sep-16 01:00N 45°09' E 012°45'815.9
2017-Sep-16 00:30N 45°03' E 012°52'917.8
2017-Sep-16 00:00N 44°54' E 012°57'917.8
2017-Sep-15 23:30N 44°46' E 013°01'917.7
2017-Sep-15 23:00N 44°38' E 013°05'917.8
2017-Sep-15 22:30N 44°29' E 013°09'917.7
2017-Sep-15 22:00N 44°21' E 013°13'268 5.7
2017-Sep-13 23:06N 41°41' E 018°08'1 8.6
2017-Sep-13 23:00N 41°40' E 018°08'4 8.7
2017-Sep-13 22:30N 41°35' E 018°07'4 8.8
2017-Sep-13 22:00N 41°31' E 018°07'6 8.7
2017-Sep-13 21:17N 41°25' E 018°07'  
2017-Sep-10 01:26N 36°46' E 023°17'2 5.1
2017-Sep-10 01:00N 36°47' E 023°20'5 5.3
2017-Sep-10 00:00N 36°49' E 023°25'3 5.1
2017-Sep-09 23:28N 36°50' E 023°28'13 5.1
2017-Sep-09 20:51N 37°01' E 023°39'3 7.0
2017-Sep-09 20:26N 37°03' E 023°41'5 7.2
2017-Sep-09 19:47N 37°07' E 023°44'2 7.5
2017-Sep-09 19:28N 37°09' E 023°46'3 7.5
2017-Sep-09 19:00N 37°12' E 023°48'25 9.0
2017-Sep-09 16:10N 37°37' E 023°43'211.4
2017-Sep-09 16:00N 37°39' E 023°42'611.3
2017-Sep-09 15:30N 37°44' E 023°39'510.7
2017-Sep-09 15:00N 37°49' E 023°36'611.7
2017-Sep-09 14:30N 37°55' E 023°37'2 4.0
2017-Sep-09 14:00N 37°56' E 023°38'0 0.0
2017-Sep-09 13:30N 37°56' E 023°38'0 0.0
2017-Sep-09 12:57N 37°56' E 023°38'0 0.0
2017-Sep-09 12:30N 37°56' E 023°38'0 0.0
2017-Sep-09 12:00N 37°56' E 023°38'0 0.0
2017-Sep-09 11:30N 37°56' E 023°38'0 0.0
2017-Sep-09 11:00N 37°56' E 023°38'0 0.0
2017-Sep-09 10:30N 37°56' E 023°38'0 0.0
2017-Sep-09 09:57N 37°56' E 023°38'0 0.0
2017-Sep-09 09:30N 37°56' E 023°38'0 0.0
2017-Sep-09 09:00N 37°56' E 023°38'0 0.0
2017-Sep-09 08:30N 37°56' E 023°38'0 0.0
2017-Sep-09 08:00N 37°56' E 023°38'0 0.0
2017-Sep-09 07:30N 37°56' E 023°38'0 0.0
2017-Sep-09 07:00N 37°56' E 023°38'0 0.0
2017-Sep-09 06:30N 37°56' E 023°38'0 0.0
2017-Sep-09 06:00N 37°56' E 023°38'0 0.0
2017-Sep-09 05:30N 37°56' E 023°38'0 0.0
2017-Sep-09 05:00N 37°56' E 023°38'0 0.0
2017-Sep-09 04:30N 37°56' E 023°38'0 0.0
2017-Sep-09 04:00N 37°56' E 023°38'0 0.0
2017-Sep-09 03:30N 37°56' E 023°38'0 0.0
2017-Sep-09 02:57N 37°56' E 023°38'0 0.0
2017-Sep-09 02:30N 37°56' E 023°38'0 0.0
2017-Sep-09 02:00N 37°56' E 023°38'0 0.0
2017-Sep-09 01:27N 37°56' E 023°38'0 0.7
2017-Sep-09 01:01N 37°56' E 023°38'3 6.1
2017-Sep-09 00:30N 37°53' E 023°37'612.5
2017-Sep-09 00:00N 37°48' E 023°41'  

Dump ship's entire track history